AirNav   Everest Fuels
 
 1494 users online  

M10 Mountainair Municipal Airport
Mountainair, New Mexico, USA

GOING TO MOUNTAINAIR?


FAA INFORMATION EFFECTIVE 15 JULY 2021

Location

FAA Identifier: M10
Lat/Long: 34-32-00.0000N 106-13-26.0000W
34-32.000000N 106-13.433333W
34.5333333,-106.2238889
(estimated)
Elevation: 6492 ft. / 1979 m (estimated)
Variation: 11E (1985)
From city: 1 mile NE of MOUNTAINAIR, NM
Time zone: UTC -6 (UTC -7 during Standard Time)
Zip code: 87036

Airport Operations

Airport use: Open to the public
Activation date: 10/1964
Control tower: no
ARTCC: ALBUQUERQUE CENTER
FSS: ALBUQUERQUE FLIGHT SERVICE STATION
NOTAMs facility: ABQ (NOTAM-D service available)
Attendance: UNATNDD
Wind indicator: yes
Segmented circle: no
Lights: ACTVT HELIPORT LIGHTS, WIND SOCK - CTAF (3 CLICKS).
Beacon: ACTVT BEACON - CTAF (3 CLICKS).

Airport Communications

CTAF: 122.9

Nearby radio navigation aids

VOR radial/distance  VOR name  Freq  Var
CNXr277/28.8CORONA VORTAC115.5013E
ONMr055/31.7SOCORRO VORTAC116.8013E
OTOr191/(35.3)OTTO VOR114.0013E

Airport Services

Airframe service: NONE
Powerplant service: NONE
Bottled oxygen: NONE
Bulk oxygen: NONE

Runway Information

Helipad H1

Dimensions: 54 x 54 ft. / 16 x 16 m
Surface: concrete, in excellent condition
Runway edge lights: PERI
Traffic pattern: leftleft

Runway 8/26

Dimensions: 2578 x 50 ft. / 786 x 15 m
Surface: dirt, in fair condition
RUNWAY 8  RUNWAY 26
Traffic pattern: leftleft
Obstructions: 15 ft. road, 300 ft. from runway, 20:1 slope to clearnone

Airport Ownership and Management from official FAA records

Ownership: Publicly-owned
Owner: TOWN OF MOUNTAINAIR
PO BOX 115
MOUNTAINAIR, NM 87036
Phone 505-847-2321
Manager: DENNIS FULFER
PO BOX 115
MOUNTAINAIR, NM 87036
Phone 505-847-2321
EMERGENCY PHONE 505-384-2705.

Airport Operational Statistics

Aircraft based on the field: 2
Ultralights: 2
    
Aircraft operations: avg 50/month *
100% local general aviation
* for 12-month period ending 02 April 2021

Additional Remarks

RWY 08/26 SOFT; UNUSBL WHEN WET; +2-4 FT BERMS ON EDGES.
RWY 08/26 INFREQUENT MAINTENANCE MAY BE HAZARDOUS; RECOMMEND VISUAL INSPECTION PRIOR TO USING.
SCATTERED TREES & BRUSH ALONG RWY SIDES ARE PRIMARY SFC OBSTRUCTIONS.
ARPT ACCESS GATE LOCKED, CALL AHEAD FOR ACCESS.
RWY 08/26 IS UNMARKED & THE THLDS ARE NOT DELINEATED.
FOR CD CTC ALBUQUERQUE ARTCC AT 505-856-4861.

Instrument Procedures

There are no published instrument procedures at M10.

Some nearby airports with instrument procedures:

0E0 - Moriarty Municipal Airport (29 nm N)
KBRG - Belen Regional Airport (31 nm W)
KABQ - Albuquerque International Sunport Airport (36 nm NW)
KONM - Socorro Municipal Airport (46 nm SW)
KAEG - Double Eagle II Airport (46 nm NW)
 
Loc | Ops | Rwys | IFR | FBO | Links
Com | Nav | Svcs | Stats | Notes

Chandler Aviation LLC
 
Area around M10 (Mountainair Municipal Airport)
 
Road maps at: MapQuest Bing Google
 
Aerial photo
WARNING: Photo may not be current or correct
Aerial photo of M10 (Mountainair Municipal Airport)
Photo by Bart Barrack
Taken in October 2017
looking north from +/- 2500 AGL.

Do you have a better or more recent aerial photo of Mountainair Municipal Airport that you would like to share? If so, please send us your photo.

 
Sectional chart

 
Airport distance calculator
Flying to Mountainair Municipal Airport? Find the distance to fly.

From to M10

Sunrise and sunset
Times for 03-Aug-2021
 Local
(UTC-6)
 Zulu
(UTC)
Morning civil twilight05:5011:50
Sunrise06:1812:18
Sunset20:0402:04
Evening civil twilight20:3202:32

Current date and time
Zulu (UTC)  03-Aug-2021 21:14:27
Local (UTC-6)  03-Aug-2021 15:14:27
 
METAR
K0E0 
29nm N 
032055Z AUTO 01003KT 10SM CLR 28/12 A3023 RMK AO2 60007 T02790116 TSNO
KBRG 
31nm W 
032055Z AUTO 00000KT 10SM BKN090 31/09 A3014 RMK AO2 LTG DSNT N T03060085
KABQ 
37nm NW 
032052Z 00000KT 10SM VCTS SCT075CB SCT200 29/11 A3015 RMK AO2 LTG DSNT N SLP119 OCNL LTGCG VC NW TS NW MOV E T02940111 56026
KCQC 
39nm NE 
ASOS 505-472-4551
032053Z AUTO 28006KT 10SM CLR 26/11 A3030 RMK AO2 PK WND 29029/1958 SLP156 T02560106 56014
KONM 
46nm SW 
032055Z AUTO 25008KT 10SM SCT110 28/13 A3013 RMK AO2 T02790133
KAEG 
46nm NW 
032047Z VRB05KT 10SM VCTS VCSH SCT070 SCT085CB 29/11 A3019 RMK TCU DSNT ALQDS LTG DSNT ALQDS
TAF
KABQ 
37nm NW 
031740Z 0318/0418 22010KT P6SM FEW070 SCT100 FM032000 27011KT P6SM VCSH SCT090 BKN150 TEMPO 0321/0324 VRB22G35KT 6SM -TSRA BKN090CB FM040000 01011KT P6SM VCSH BKN100 FM040300 09012G22KT P6SM FEW040 BKN100 FM040800 06009KT P6SM FEW080 SCT100 FM041400 04006KT P6SM FEW080 SCT100
NOTAMs
Click for the latest NOTAMs
NOTAMs are issued by the DoD/FAA and will open in a separate window not controlled by AirNav.

 

 
 

Would you like to see your business listed on this page?

 If your business provides an interesting product or service to pilots, flight crews, aircraft, or users of the Mountainair Municipal Airport, you should consider listing it here.  To start the listing process, click on the button below
 
Add a business
 

Other Pages about Mountainair Municipal Airport

Update a link
 
Copyright © AirNav, LLC. All rights reserved. Privacy Policy  Contact